Healdton, OK

11:15 PM CDT on October 01, 2014 (GMT -0500)
Halliburton | Change Station
CLOSE
Current Station
Airport
Location: Duncan,
Elevation: 1112 ft
Nearby Weather Stations

Elev 1112 ft 34.48 °N, 97.96 °W | Updated 20 minutes ago

Clear
Clear
81 °F
Feels Like 83 °F
N
13
Wind Variable Wind from SSE

Today
High -- | Low -- °F
--% Chance of Precip.
Yesterday
High -- | Low -- °F
Precip. -- in
7:24 AM 7:14 PM
First Quarter, 54% visible
Pressure 29.74 in
Visibility 10.0 miles
Clouds Clear
Heat Index 83 °F
Dew Point 66 °F
Humidity 61%
Rainfall 0.00 in
Snow Depth Not available.
UV 0 out of 12
Pollen 9.60 out of 12
Air Quality Not available.
Flu Activity Not available.
METAR KDUC 020355Z AUTO 16011KT 10SM CLR 27/19 A2974 RMK AO2 LTG DSNT N

More Conditions Fewer Conditions

Pressure 29.74 in
Visibility 10.0 miles
Clouds Clear
Heat Index 83 °F
Dew Point 66 °F
Humidity 61%
Rainfall 0.00 in
Snow Depth Not available.
UV 0 out of 12
Pollen 9.60 out of 12
Air Quality Not available.
Flu Activity Not available.
METAR KDUC 020355Z AUTO 16011KT 10SM CLR 27/19 A2974 RMK AO2 LTG DSNT N

More Conditions Fewer Conditions

10-Day Weather Forecast

Almanac

Astronomy

Oct. 01, 2014 Rise Set
Actual Time 7:24 AM CDT 7:14 PM CDT
Civil Twilight 6:59 AM CDT 7:39 PM CDT
Nautical Twilight 6:30 AM CDT 8:08 PM CDT
Astronomical Twilight 6:01 AM CDT 8:37 PM CDT
Moon 2:15 PM CDT (10/1) No Moon Set
Length of Visible Light 12h 39m
Length of Day
11h 49m
Tomorrow will be 2m 7s shorter.
First Quarter, 54% of the Moon is Illuminated
Oct 2
First Quarter
Oct 8
Full
Oct 15
Last Quarter
Oct 23
New
Oct 30
First Quarter

Today's Extremes

State Highs State Lows

Community

WunderPhotos

Upload Photos

1,758,187 photos uploaded!

Nearby

Snow Depth

Station Depth Elevation
No new snow has been reported.

Earthquake Activity

City Distance Mag. Time & Date
Perry, Oklahoma 135 miles 2.6 8:20 PM CDT
2014-10-01
Guthrie, Oklahoma 111 miles 3.0 5:15 PM CDT
2014-10-01
Spencer, Oklahoma 94 miles 3.0 5:12 PM CDT
2014-09-30
Perry, Oklahoma 135 miles 2.6 2:34 PM CDT
2014-09-30
Minimum magnitude displayed is 2.5.

Coastal Water Temperatures

Place Temperature
No Stations Reporting

Nearby Weather Stations